Time;durP1;ratioP1;P1;durP2;ratioP2;P2;SDS_P1;SDS_P2;PMS_P1;PMS_P2;Temp;Humidity;BMP_temperature;BMP_pressure;BME280_temperature;BME280_humidity;BME280_pressure;Samples;Min_cycle;Max_cycle;Signal;HPM_P1;HPM_P2
2021/12/01 00:01:36;;;;;;;7.20;5.80;;;;;;;3.65;100.00;100554.34;4996022;28;20189;-71
2021/12/01 00:04:22;;;;;;;9.55;6.20;;;;;;;3.81;100.00;100546.72;4996312;28;20411;-71
2021/12/01 00:07:09;;;;;;;10.15;6.30;;;;;;;4.09;100.00;100551.22;4995902;28;20447;-69
2021/12/01 00:09:54;;;;;;;9.02;5.82;;;;;;;4.02;100.00;100543.41;4996618;28;20113;-72
2021/12/01 00:12:40;;;;;;;6.90;5.43;;;;;;;4.10;100.00;100546.91;4981792;28;20104;-71
2021/12/01 00:15:26;;;;;;;7.70;5.40;;;;;;;3.85;100.00;100553.66;4995878;28;20034;-74
2021/12/01 00:18:12;;;;;;;7.88;5.38;;;;;;;3.87;100.00;100538.97;4995616;28;20033;-71
2021/12/01 00:20:58;;;;;;;6.30;4.97;;;;;;;3.88;100.00;100545.91;4995013;28;20049;-71
2021/12/01 00:23:44;;;;;;;7.25;5.00;;;;;;;3.97;100.00;100538.19;4995630;28;20363;-72
2021/12/01 00:26:30;;;;;;;6.63;4.72;;;;;;;3.77;100.00;100546.66;4995246;28;20451;-70
2021/12/01 00:29:15;;;;;;;6.20;4.75;;;;;;;3.92;100.00;100550.25;4982243;28;20470;-71
2021/12/01 00:32:02;;;;;;;6.22;4.60;;;;;;;3.76;100.00;100535.47;4995823;28;20027;-71
2021/12/01 00:34:48;;;;;;;5.25;4.20;;;;;;;4.14;100.00;100528.75;4995272;28;20049;-71
2021/12/01 00:37:35;;;;;;;6.35;4.38;;;;;;;3.98;100.00;100529.53;4996395;28;20149;-71
2021/12/01 00:40:21;;;;;;;5.00;3.88;;;;;;;4.23;100.00;100521.03;4994436;28;20049;-70
2021/12/01 00:43:07;;;;;;;6.00;4.35;;;;;;;4.10;100.00;100523.56;4994394;28;20359;-71
2021/12/01 00:45:58;;;;;;;5.75;4.03;;;;;;;4.21;100.00;100527.94;4981600;28;20371;-71
2021/12/01 00:48:44;;;;;;;5.07;4.20;;;;;;;4.20;100.00;100526.22;4994291;28;20034;-71
2021/12/01 00:51:29;;;;;;;6.35;4.45;;;;;;;4.18;100.00;100520.16;4996121;28;20022;-71
2021/12/01 00:54:16;;;;;;;6.22;4.47;;;;;;;4.26;100.00;100522.78;4994868;28;20451;-70
2021/12/01 00:57:02;;;;;;;5.22;4.00;;;;;;;4.22;100.00;100526.22;4994927;28;20033;-69
2021/12/01 00:59:48;;;;;;;5.00;3.90;;;;;;;4.29;100.00;100513.28;4996013;28;20073;-70
2021/12/01 01:02:35;;;;;;;7.00;4.68;;;;;;;4.18;100.00;100503.75;4994771;28;20085;-70
2021/12/01 01:05:22;;;;;;;6.75;4.32;;;;;;;4.22;100.00;100497.72;4994191;28;20038;-70
2021/12/01 01:08:08;;;;;;;6.10;4.30;;;;;;;4.18;100.00;100490.78;4994954;28;20041;-71
2021/12/01 01:16:50;;;;;;;6.20;4.30;;;;;;;4.19;100.00;100489.91;4994612;28;20037;-71
2021/12/01 01:19:37;;;;;;;5.85;4.32;;;;;;;4.12;100.00;100504.56;4980867;28;20093;-71
2021/12/01 01:22:23;;;;;;;5.15;4.18;;;;;;;4.14;100.00;100492.47;4982182;28;20034;-71
2021/12/01 01:25:09;;;;;;;5.90;4.43;;;;;;;4.02;100.00;100489.81;4995562;28;20038;-71
2021/12/01 01:27:55;;;;;;;6.68;4.25;;;;;;;4.16;100.00;100480.41;4994786;28;20023;-71
2021/12/01 01:30:41;;;;;;;6.95;4.68;;;;;;;4.04;100.00;100480.34;4981222;28;20027;-71
2021/12/01 01:33:27;;;;;;;6.43;4.65;;;;;;;3.93;100.00;100475.94;4995317;28;20077;-70
2021/12/01 01:36:13;;;;;;;5.60;4.47;;;;;;;3.98;100.00;100469.09;4994159;28;20455;-71
2021/12/01 01:39:00;;;;;;;5.32;4.10;;;;;;;3.82;100.00;100462.09;4993517;28;20030;-70
2021/12/01 01:41:46;;;;;;;6.10;4.32;;;;;;;4.08;100.00;100453.56;4995424;28;20030;-70
2021/12/01 01:44:32;;;;;;;5.75;4.25;;;;;;;4.17;100.00;100443.25;4995019;28;20053;-71
2021/12/01 01:47:18;;;;;;;6.60;4.10;;;;;;;4.09;100.00;100451.84;4994832;28;20042;-70
2021/12/01 01:52:53;;;;;;;6.28;4.63;;;;;;;4.14;100.00;100432.00;4994334;28;20451;-69
2021/12/01 01:55:41;;;;;;;5.05;4.30;;;;;;;4.08;100.00;100440.63;4998400;28;20026;-71
2021/12/01 01:58:28;;;;;;;5.53;4.25;;;;;;;4.15;100.00;100433.72;4998193;28;20041;-71
2021/12/01 02:02:03;;;;;;;7.30;4.90;;;;;;;4.26;100.00;100442.41;4997055;28;20034;-70
2021/12/01 02:04:23;;;;;;;5.88;4.15;;;;;;;4.05;100.00;100443.19;4998112;28;20104;-70
2021/12/01 02:07:09;;;;;;;6.07;4.57;;;;;;;4.31;100.00;100435.50;4997915;28;20018;-70
2021/12/01 02:09:55;;;;;;;6.22;4.32;;;;;;;4.38;100.00;100430.34;4998494;28;20293;-71
2021/12/01 02:12:41;;;;;;;6.25;4.40;;;;;;;4.25;100.00;100425.97;4997792;28;20383;-70
2021/12/01 02:15:27;;;;;;;5.75;4.20;;;;;;;4.65;100.00;100426.94;4997844;28;20466;-71
2021/12/01 02:18:12;;;;;;;5.72;4.47;;;;;;;4.56;100.00;100430.41;4998887;28;20432;-71
2021/12/01 02:21:01;;;;;;;5.88;4.55;;;;;;;4.62;100.00;100424.31;4998424;28;20022;-70
2021/12/01 02:23:49;;;;;;;5.35;4.38;;;;;;;4.60;100.00;100424.34;4985101;28;20059;-71
2021/12/01 02:26:41;;;;;;;6.13;4.07;;;;;;;4.44;100.00;100414.81;4998455;28;20118;-71
2021/12/01 02:29:27;;;;;;;5.47;3.90;;;;;;;4.35;100.00;100399.19;4998743;28;20081;-71
2021/12/01 02:32:13;;;;;;;5.43;4.30;;;;;;;4.42;100.00;100402.69;4998397;28;20037;-70
2021/12/01 02:34:59;;;;;;;4.80;4.13;;;;;;;4.41;100.00;100403.53;4997040;28;20042;-70
2021/12/01 02:37:45;;;;;;;5.07;4.07;;;;;;;4.45;100.00;100400.97;4984088;28;20399;-71
2021/12/01 02:40:32;;;;;;;6.07;4.30;;;;;;;4.68;100.00;100394.09;4984796;28;20045;-69
2021/12/01 02:43:23;;;;;;;6.35;4.55;;;;;;;4.60;100.00;100395.81;4998245;28;20416;-71
2021/12/01 02:46:09;;;;;;;5.40;3.97;;;;;;;4.38;100.00;100393.19;4996687;28;20034;-71
2021/12/01 02:48:56;;;;;;;5.30;3.92;;;;;;;4.45;100.00;100390.59;4996070;28;20022;-70
2021/12/01 02:51:41;;;;;;;6.60;4.28;;;;;;;4.23;100.00;100391.41;4997888;28;20113;-71
2021/12/01 02:54:29;;;;;;;8.73;5.53;;;;;;;4.46;100.00;100392.31;4997032;28;20515;-70
2021/12/01 02:57:15;;;;;;;8.57;5.13;;;;;;;4.67;100.00;100394.94;4997696;28;20094;-70
2021/12/01 03:00:01;;;;;;;6.10;4.05;;;;;;;4.57;100.00;100401.00;4996965;28;20025;-71
2021/12/01 03:02:48;;;;;;;6.47;4.18;;;;;;;4.73;100.00;100397.56;4997271;28;20116;-71
2021/12/01 03:05:34;;;;;;;4.85;3.53;;;;;;;4.40;100.00;100402.69;4995124;28;20103;-71
2021/12/01 03:08:20;;;;;;;4.88;3.70;;;;;;;4.83;100.00;100409.66;4997722;28;20422;-70
2021/12/01 03:11:06;;;;;;;4.68;3.10;;;;;;;4.63;100.00;100400.13;4996283;28;20042;-69
2021/12/01 03:13:54;;;;;;;4.25;3.60;;;;;;;4.36;100.00;100397.47;4983249;28;20030;-71
2021/12/01 03:16:39;;;;;;;6.13;3.70;;;;;;;4.63;100.00;100398.38;4997977;28;20026;-71
2021/12/01 03:19:25;;;;;;;5.10;3.97;;;;;;;4.59;100.00;100396.66;4996665;28;20172;-71
2021/12/01 03:22:15;;;;;;;5.80;3.70;;;;;;;4.26;100.00;100404.38;4997288;28;20176;-71
2021/12/01 03:25:00;;;;;;;5.25;3.40;;;;;;;4.47;100.00;100401.81;4997009;28;20058;-71
2021/12/01 03:27:46;;;;;;;4.57;3.50;;;;;;;4.46;100.00;100397.50;4983187;28;20065;-70
2021/12/01 03:30:37;;;;;;;5.95;3.20;;;;;;;4.69;100.00;100397.53;4982741;28;20023;-71
2021/12/01 03:33:24;;;;;;;5.35;3.05;;;;;;;4.84;100.00;100395.84;4997564;28;20045;-71
2021/12/01 03:36:10;;;;;;;3.78;2.80;;;;;;;4.83;100.00;100396.69;4975877;28;20055;-71
2021/12/01 03:38:55;;;;;;;5.05;2.97;;;;;;;4.73;100.00;100396.66;4963304;28;20070;-71
2021/12/01 03:41:41;;;;;;;8.15;2.75;;;;;;;4.71;100.00;100401.84;4976750;28;20026;-70
2021/12/01 03:44:27;;;;;;;3.65;2.95;;;;;;;4.68;100.00;100401.00;4977186;28;20023;-72
2021/12/01 03:47:13;;;;;;;3.00;2.70;;;;;;;4.83;100.00;100414.84;4963364;28;20455;-70
2021/12/01 03:50:00;;;;;;;3.33;2.30;;;;;;;4.61;100.00;100412.22;4976936;28;20114;-70
2021/12/01 03:52:46;;;;;;;3.08;2.45;;;;;;;4.67;100.00;100407.91;4962655;28;20038;-71
2021/12/01 03:55:34;;;;;;;3.35;2.70;;;;;;;4.82;100.00;100415.72;4977544;28;20066;-71
2021/12/01 03:58:20;;;;;;;3.03;2.35;;;;;;;5.00;100.00;100425.25;4963012;28;20023;-70
2021/12/01 04:01:10;;;;;;;5.20;2.40;;;;;;;4.99;100.00;100429.56;4977056;28;20086;-71
2021/12/01 04:03:58;;;;;;;3.28;2.33;;;;;;;4.90;99.66;100420.91;4963198;28;20042;-70
2021/12/01 04:06:43;;;;;;;4.03;2.33;;;;;;;5.15;97.80;100433.88;4976155;28;20041;-70
2021/12/01 04:09:31;;;;;;;2.38;1.80;;;;;;;5.07;97.44;100435.63;4977222;28;20443;-70
2021/12/01 04:12:17;;;;;;;3.53;2.08;;;;;;;5.18;97.09;100423.50;4976727;28;20383;-68
2021/12/01 04:15:04;;;;;;;2.30;2.00;;;;;;;5.36;96.59;100410.47;4963759;28;20117;-70
2021/12/01 04:17:50;;;;;;;2.58;1.98;;;;;;;5.00;97.89;100400.16;4975890;28;20088;-70
2021/12/01 04:20:36;;;;;;;5.35;2.40;;;;;;;5.02;98.16;100398.41;4976862;28;20159;-69
2021/12/01 04:23:22;;;;;;;3.08;2.08;;;;;;;5.10;99.14;100404.47;4976799;28;20026;-70
2021/12/01 04:26:13;;;;;;;4.35;2.20;;;;;;;5.01;100.00;100403.59;4976748;28;20110;-70
2021/12/01 04:29:00;;;;;;;3.00;2.10;;;;;;;5.09;100.00;100394.06;4976261;28;20470;-70
2021/12/01 04:31:46;;;;;;;3.00;2.45;;;;;;;4.97;100.00;100391.50;4976915;28;20042;-70
2021/12/01 04:34:32;;;;;;;2.80;2.20;;;;;;;5.06;100.00;100381.09;4982166;28;20078;-70
2021/12/01 04:37:18;;;;;;;2.85;2.20;;;;;;;5.09;100.00;100384.56;4995161;28;20042;-70
2021/12/01 04:40:06;;;;;;;3.33;2.40;;;;;;;4.74;100.00;100383.69;4996280;28;20034;-71
2021/12/01 04:42:52;;;;;;;3.70;2.40;;;;;;;4.82;100.00;100387.16;4995256;28;20046;-70
2021/12/01 04:45:42;;;;;;;4.45;2.45;;;;;;;4.98;100.00;100388.91;4980954;28;20463;-71
2021/12/01 04:48:28;;;;;;;3.40;2.40;;;;;;;4.98;100.00;100394.09;4995044;28;20574;-71
2021/12/01 04:51:17;;;;;;;2.88;2.42;;;;;;;4.77;100.00;100390.63;4993897;28;20030;-70
2021/12/01 04:54:04;;;;;;;2.90;2.20;;;;;;;4.69;100.00;100401.00;4981313;28;20117;-71
2021/12/01 04:56:51;;;;;;;2.85;2.15;;;;;;;4.81;100.00;100406.22;4994737;28;20022;-70
2021/12/01 04:59:37;;;;;;;3.15;2.20;;;;;;;5.00;100.00;100413.16;4993911;28;20439;-71
2021/12/01 05:02:23;;;;;;;3.72;2.20;;;;;;;5.06;100.00;100407.94;4994951;28;20443;-70
2021/12/01 05:05:08;;;;;;;3.70;2.60;;;;;;;4.82;100.00;100410.53;4995838;28;20061;-71
2021/12/01 05:07:54;;;;;;;6.63;2.60;;;;;;;4.90;100.00;100411.41;4995001;28;20026;-71
2021/12/01 05:10:40;;;;;;;3.05;2.60;;;;;;;5.09;100.00;100415.72;4994855;28;20032;-70
2021/12/01 05:13:26;;;;;;;3.85;2.60;;;;;;;4.90;100.00;100421.78;4981876;28;20403;-70
2021/12/01 05:16:12;;;;;;;4.82;2.55;;;;;;;4.98;100.00;100437.34;4981457;28;20455;-70
2021/12/01 05:19:00;;;;;;;3.72;2.70;;;;;;;4.80;100.00;100434.75;4994103;28;20143;-70
2021/12/01 05:21:46;;;;;;;7.28;2.92;;;;;;;4.79;100.00;100440.81;4995152;28;20522;-70
2021/12/01 05:24:33;;;;;;;3.10;2.58;;;;;;;4.65;100.00;100443.38;4994400;28;20046;-71
2021/12/01 05:27:18;;;;;;;2.83;2.30;;;;;;;4.77;100.00;100458.97;4994458;28;20054;-71
2021/12/01 05:30:05;;;;;;;3.40;2.58;;;;;;;5.02;100.00;100444.25;4995218;28;20030;-70
2021/12/01 05:32:51;;;;;;;4.80;2.90;;;;;;;5.21;100.00;100452.06;4995244;28;20034;-70
2021/12/01 05:35:36;;;;;;;3.17;2.60;;;;;;;5.16;100.00;100451.19;4994291;28;20047;-70
2021/12/01 05:38:22;;;;;;;3.90;2.38;;;;;;;5.01;100.00;100456.41;4994845;28;20465;-70
2021/12/01 05:41:08;;;;;;;4.30;2.40;;;;;;;5.13;100.00;100442.53;4995282;28;20097;-71
2021/12/01 05:43:54;;;;;;;4.28;2.60;;;;;;;5.09;100.00;100446.88;4980921;28;20027;-70
2021/12/01 05:46:40;;;;;;;3.03;2.42;;;;;;;5.09;100.00;100439.09;4980174;28;20105;-70
2021/12/01 05:49:25;;;;;;;5.13;2.60;;;;;;;5.17;100.00;100452.94;4995337;28;20038;-71
2021/12/01 05:52:13;;;;;;;3.53;2.70;;;;;;;5.25;100.00;100455.53;4995355;28;20057;-70
2021/12/01 05:54:59;;;;;;;5.50;3.10;;;;;;;5.29;100.00;100457.25;4993918;28;20073;-71
2021/12/01 05:57:45;;;;;;;4.90;3.08;;;;;;;5.47;100.00;100457.25;4994328;28;20092;-71
2021/12/01 06:00:31;;;;;;;4.78;3.25;;;;;;;5.47;100.00;100471.09;4994158;28;20058;-71
2021/12/01 06:03:16;;;;;;;5.82;3.17;;;;;;;5.53;100.00;100458.94;4994747;28;20382;-70
2021/12/01 06:06:02;;;;;;;6.88;3.05;;;;;;;5.75;100.00;100450.25;4994515;28;20037;-71
2021/12/01 06:08:48;;;;;;;4.57;3.30;;;;;;;5.56;100.00;100453.75;4980509;28;20088;-69
2021/12/01 06:11:34;;;;;;;6.03;3.00;;;;;;;5.41;100.00;100449.47;4993730;28;20423;-70
2021/12/01 06:14:20;;;;;;;4.85;3.30;;;;;;;5.54;100.00;100452.91;4981996;28;20030;-70
2021/12/01 06:17:07;;;;;;;5.25;3.08;;;;;;;5.35;100.00;100457.28;4994781;28;20042;-70
2021/12/01 06:19:53;;;;;;;4.35;3.00;;;;;;;5.29;100.00;100462.44;4994544;28;20062;-71
2021/12/01 06:22:40;;;;;;;4.65;2.83;;;;;;;5.16;100.00;100466.75;4994301;28;20109;-69
2021/12/01 06:25:27;;;;;;;5.97;3.50;;;;;;;5.11;100.00;100468.50;4994613;28;20113;-70
2021/12/01 06:28:13;;;;;;;5.15;3.13;;;;;;;5.28;100.00;100476.31;4995008;28;20037;-73
2021/12/01 06:30:59;;;;;;;4.60;3.17;;;;;;;4.92;100.00;100482.34;4993771;28;20026;-71
2021/12/01 06:33:45;;;;;;;4.85;3.28;;;;;;;5.50;100.00;100482.38;4994834;28;20053;-71
2021/12/01 06:36:30;;;;;;;5.57;3.35;;;;;;;5.19;100.00;100476.31;4993474;28;20474;-70
2021/12/01 06:39:16;;;;;;;4.97;3.17;;;;;;;5.22;100.00;100471.97;4994403;28;20034;-71
2021/12/01 06:42:03;;;;;;;4.28;3.13;;;;;;;5.39;100.00;100491.00;4996843;28;20113;-71
2021/12/01 06:44:48;;;;;;;5.03;3.25;;;;;;;5.36;100.00;100496.19;4997929;28;20030;-71
2021/12/01 06:47:34;;;;;;;4.07;2.72;;;;;;;5.46;100.00;100501.41;4997725;28;20030;-72
2021/12/01 06:50:20;;;;;;;6.03;3.15;;;;;;;5.69;100.00;100516.09;4998612;28;20034;-70
2021/12/01 06:53:06;;;;;;;4.47;3.10;;;;;;;5.97;100.00;100524.75;4998262;28;20030;-71
2021/12/01 06:55:52;;;;;;;6.75;2.95;;;;;;;5.72;100.00;100525.63;4997319;28;20097;-72
2021/12/01 06:58:38;;;;;;;4.40;3.05;;;;;;;5.99;100.00;100523.88;4983934;28;20088;-70
2021/12/01 07:01:27;;;;;;;6.07;3.88;;;;;;;5.81;100.00;100520.44;4996680;28;20021;-71
2021/12/01 07:04:14;;;;;;;6.95;3.45;;;;;;;5.47;100.00;100517.84;4981216;28;20618;-70
2021/12/01 07:06:59;;;;;;;5.55;3.97;;;;;;;5.78;100.00;100510.03;4974545;28;20092;-71
2021/12/01 07:09:49;;;;;;;6.05;3.90;;;;;;;5.91;100.00;100514.38;4982731;28;20038;-69
2021/12/01 07:12:36;;;;;;;7.90;3.75;;;;;;;5.79;100.00;100519.56;4973229;28;20050;-70
2021/12/01 07:15:22;;;;;;;5.53;3.47;;;;;;;6.05;100.00;100517.81;4982567;28;20485;-69
2021/12/01 07:18:08;;;;;;;7.43;3.78;;;;;;;6.17;100.00;100522.97;4985910;28;20042;-70
2021/12/01 07:20:54;;;;;;;6.10;3.10;;;;;;;6.29;100.00;100525.53;4986737;28;20026;-70
2021/12/01 07:23:40;;;;;;;4.63;3.10;;;;;;;6.60;100.00;100534.97;4982842;28;20117;-69
2021/12/01 07:26:25;;;;;;;6.07;3.25;;;;;;;6.54;100.00;100542.78;4985352;28;20038;-69
2021/12/01 07:29:11;;;;;;;4.38;3.00;;;;;;;6.72;100.00;100542.72;4980428;28;20038;-71
2021/12/01 07:31:57;;;;;;;3.75;2.75;;;;;;;6.73;100.00;100544.44;4982910;28;20034;-70
2021/12/01 07:34:43;;;;;;;5.72;2.70;;;;;;;6.65;100.00;100549.69;4977191;28;20063;-70
2021/12/01 07:37:29;;;;;;;4.80;3.42;;;;;;;7.03;100.00;100557.31;4966203;28;20037;-69
2021/12/01 07:40:16;;;;;;;3.10;2.65;;;;;;;6.99;100.00;100551.25;4966414;28;20035;-69
2021/12/01 07:43:02;;;;;;;4.57;2.63;;;;;;;7.01;100.00;100543.41;4952339;28;20101;-70
2021/12/01 07:45:48;;;;;;;6.05;3.30;;;;;;;7.13;100.00;100540.75;4965521;28;20379;-70
2021/12/01 07:48:36;;;;;;;6.05;3.30;;;;;;;7.26;100.00;100543.25;4965330;28;20031;-70
2021/12/01 07:51:22;;;;;;;4.88;3.28;;;;;;;7.06;100.00;100545.13;4965898;28;20523;-70
2021/12/01 07:54:07;;;;;;;4.30;3.33;;;;;;;7.39;100.00;100562.28;4964924;28;20080;-70
2021/12/01 07:56:53;;;;;;;5.05;3.00;;;;;;;7.50;100.00;100547.41;4951943;28;20360;-70
2021/12/01 07:59:46;;;;;;;5.40;3.38;;;;;;;7.00;100.00;100542.56;4952211;28;20939;-69
2021/12/01 08:02:32;;;;;;;4.88;3.05;;;;;;;7.42;100.00;100528.38;4952215;28;20019;-70
2021/12/01 08:05:18;;;;;;;5.72;3.40;;;;;;;7.45;100.00;100543.97;4963783;28;20401;-71
2021/12/01 08:08:05;;;;;;;5.93;3.13;;;;;;;7.86;100.00;100549.72;4965955;28;20025;-70
2021/12/01 08:10:51;;;;;;;4.72;2.90;;;;;;;7.92;100.00;100560.94;4953702;28;20126;-70
2021/12/01 08:13:38;;;;;;;5.22;3.08;;;;;;;8.03;100.00;100566.94;4963421;28;20043;-70
2021/12/01 08:16:24;;;;;;;4.20;3.00;;;;;;;7.99;100.00;100564.34;4967288;28;20475;-70
2021/12/01 08:19:09;;;;;;;4.25;2.65;;;;;;;8.13;100.00;100567.72;4965977;28;20456;-70
2021/12/01 08:21:55;;;;;;;4.38;3.30;;;;;;;8.67;100.00;100574.97;4966668;28;20033;-72
2021/12/01 08:24:41;;;;;;;4.60;3.10;;;;;;;8.79;100.00;100565.22;4963908;28;20039;-70
2021/12/01 08:27:28;;;;;;;3.20;2.55;;;;;;;9.30;100.00;100554.06;4965026;28;20037;-69
2021/12/01 08:30:15;;;;;;;5.72;3.25;;;;;;;9.53;100.00;100561.56;4966826;28;20070;-71
2021/12/01 08:33:01;;;;;;;4.00;3.03;;;;;;;9.42;100.00;100566.09;4966710;28;20026;-71
2021/12/01 08:35:46;;;;;;;5.07;2.72;;;;;;;9.19;100.00;100569.03;4986512;28;20058;-71
2021/12/01 08:38:32;;;;;;;6.00;3.17;;;;;;;9.15;100.00;100580.44;4988989;28;20039;-69
2021/12/01 08:41:18;;;;;;;4.88;2.70;;;;;;;8.76;100.00;100583.56;4974459;28;20345;-70
2021/12/01 08:44:04;;;;;;;4.13;3.20;;;;;;;8.83;100.00;100579.09;4997661;28;20078;-70
2021/12/01 08:46:50;;;;;;;4.57;3.53;;;;;;;8.50;100.00;100580.41;4999080;28;20053;-70
2021/12/01 08:49:36;;;;;;;5.65;3.45;;;;;;;8.95;100.00;100572.00;4988169;28;20136;-70
2021/12/01 08:52:23;;;;;;;3.75;2.88;;;;;;;8.92;100.00;100579.00;4995786;28;20064;-70
2021/12/01 08:55:09;;;;;;;6.22;3.50;;;;;;;9.00;100.00;100570.16;4975329;28;20034;-71
2021/12/01 08:57:54;;;;;;;5.95;3.22;;;;;;;10.02;100.00;100580.78;4991094;28;20471;-69
2021/12/01 09:00:44;;;;;;;6.13;3.70;;;;;;;9.95;100.00;100581.78;4999294;28;20042;-71
2021/12/01 09:03:30;;;;;;;5.65;3.30;;;;;;;9.82;100.00;100586.34;4985277;28;20026;-71
2021/12/01 09:06:16;;;;;;;4.88;3.08;;;;;;;10.08;100.00;100585.94;4998095;28;20654;-70
2021/12/01 09:09:02;;;;;;;6.47;3.00;;;;;;;9.64;100.00;100583.16;4995473;28;20619;-70
2021/12/01 09:11:50;;;;;;;8.25;3.35;;;;;;;9.90;100.00;100591.47;4998378;28;20034;-71
2021/12/01 09:14:36;;;;;;;5.60;3.08;;;;;;;9.62;100.00;100577.09;4986191;28;20565;-71
2021/12/01 09:17:22;;;;;;;4.03;2.90;;;;;;;9.38;100.00;100578.34;4996698;28;20092;-70
2021/12/01 09:20:08;;;;;;;6.43;2.97;;;;;;;9.14;100.00;100577.81;4990457;28;20030;-70
2021/12/01 09:22:55;;;;;;;5.60;3.40;;;;;;;9.19;100.00;100568.16;4987546;28;20446;-68
2021/12/01 09:25:41;;;;;;;4.07;3.08;;;;;;;8.82;100.00;100567.81;4995470;28;20121;-71
2021/12/01 09:28:27;;;;;;;3.95;3.20;;;;;;;8.95;100.00;100558.94;4985254;28;20097;-72
2021/12/01 09:31:13;;;;;;;4.95;3.17;;;;;;;9.17;100.00;100555.13;4995397;28;20060;-69
2021/12/01 09:33:59;;;;;;;6.78;3.50;;;;;;;9.20;100.00;100554.19;4997159;28;20129;-70
2021/12/01 09:36:45;;;;;;;4.22;3.10;;;;;;;9.22;100.00;100545.47;4983448;28;20069;-70
2021/12/01 09:39:30;;;;;;;5.40;3.20;;;;;;;9.29;100.00;100541.88;4991888;28;20041;-70
2021/12/01 09:42:16;;;;;;;4.97;3.33;;;;;;;9.09;100.00;100530.00;4991656;28;20027;-69
2021/12/01 09:45:02;;;;;;;4.90;3.00;;;;;;;9.12;100.00;100528.19;4992990;28;20034;-72
2021/12/01 09:47:50;;;;;;;4.18;2.85;;;;;;;9.34;100.00;100541.81;4990960;28;20395;-76
2021/12/01 09:50:36;;;;;;;4.35;3.25;;;;;;;9.38;100.00;100527.81;4992520;28;20523;-69
2021/12/01 09:53:21;;;;;;;7.55;3.30;;;;;;;9.62;100.00;100535.25;4991843;28;20113;-70
2021/12/01 09:56:07;;;;;;;8.45;3.58;;;;;;;9.48;100.00;100534.59;4992352;28;20022;-69
2021/12/01 09:58:54;;;;;;;6.00;3.30;;;;;;;9.74;100.00;100541.13;4979454;28;20026;-68
2021/12/01 10:01:40;;;;;;;4.68;2.83;;;;;;;9.86;100.00;100532.22;4979840;28;20359;-70
2021/12/01 10:04:28;;;;;;;4.90;3.20;;;;;;;9.73;100.00;100525.47;4979125;28;20459;-70
2021/12/01 10:07:23;;;;;;;3.70;3.00;;;;;;;9.84;100.00;100540.09;4992517;28;20132;-71
2021/12/01 10:10:10;;;;;;;5.03;3.10;;;;;;;9.82;100.00;100543.63;4979664;28;20102;-71
2021/12/01 10:12:56;;;;;;;5.07;2.80;;;;;;;9.89;100.00;100550.50;4992874;28;20096;-71
2021/12/01 10:15:42;;;;;;;4.40;3.17;;;;;;;10.21;100.00;100555.19;4994299;28;20022;-70
2021/12/01 10:18:33;;;;;;;6.13;3.53;;;;;;;10.48;100.00;100555.50;4983418;28;20027;-70
2021/12/01 10:21:21;;;;;;;7.45;3.00;;;;;;;10.17;100.00;100546.53;4997585;28;20037;-69
2021/12/01 10:24:19;;;;;;;5.95;2.90;;;;;;;10.06;100.00;100567.63;4996734;28;20124;-70
2021/12/01 10:27:11;;;;;;;9.10;3.85;;;;;;;10.34;100.00;100546.19;4997293;28;20442;-71
2021/12/01 10:29:57;;;;;;;4.53;3.05;;;;;;;10.43;100.00;100551.25;4996585;28;20026;-70
2021/12/01 10:32:43;;;;;;;6.20;3.25;;;;;;;10.35;100.00;100547.91;4983952;28;20455;-71
2021/12/01 10:35:33;;;;;;;5.53;3.45;;;;;;;10.49;100.00;100545.91;4987804;28;20408;-70
2021/12/01 10:38:36;;;;;;;6.13;2.90;;;;;;;10.72;100.00;100541.06;4996786;28;20091;-69
2021/12/01 10:41:36;;;;;;;6.82;3.10;;;;;;;10.69;100.00;100534.09;4997074;28;20026;-70
2021/12/01 10:44:21;;;;;;;4.78;2.80;;;;;;;10.79;100.00;100542.63;4997357;28;20113;-70
2021/12/01 10:47:10;;;;;;;5.25;2.92;;;;;;;10.76;100.00;100540.09;4996300;28;20023;-71
2021/12/01 10:49:57;;;;;;;6.25;3.08;;;;;;;11.14;100.00;100545.38;4997000;28;20085;-70
2021/12/01 10:52:50;;;;;;;3.42;2.70;;;;;;;11.10;100.00;100541.97;4996469;28;20031;-69
2021/12/01 10:55:42;;;;;;;5.43;3.10;;;;;;;11.09;100.00;100537.59;4997474;28;20098;-70
2021/12/01 10:58:35;;;;;;;4.75;2.92;;;;;;;11.34;100.00;100537.91;4997045;28;20469;-70
2021/12/01 11:01:24;;;;;;;4.93;3.42;;;;;;;11.24;100.00;100552.13;4996491;28;20077;-70
2021/12/01 11:04:10;;;;;;;4.40;2.80;;;;;;;11.03;100.00;100549.97;4997158;28;20092;-70
2021/12/01 11:06:56;;;;;;;4.40;2.97;;;;;;;11.43;100.00;100546.44;4998333;28;20026;-70
2021/12/01 11:09:42;;;;;;;5.07;3.20;;;;;;;11.74;100.00;100542.16;4997441;28;20463;-70
2021/12/01 11:12:28;;;;;;;4.03;2.83;;;;;;;11.14;100.00;100533.13;4997602;28;20022;-70
2021/12/01 11:15:21;;;;;;;4.15;3.00;;;;;;;11.47;100.00;100537.59;4996825;28;20069;-70
2021/12/01 11:18:10;;;;;;;5.38;3.08;;;;;;;11.35;100.00;100532.63;4997183;28;20092;-69
2021/12/01 11:21:01;;;;;;;5.45;3.00;;;;;;;11.72;100.00;100536.13;4997233;28;20029;-70
2021/12/01 11:23:52;;;;;;;3.83;2.95;;;;;;;11.53;100.00;100537.41;4996740;28;20394;-71
2021/12/01 11:26:43;;;;;;;4.35;3.13;;;;;;;11.78;100.00;100538.56;4995994;28;20031;-70
2021/12/01 11:29:28;;;;;;;5.80;3.08;;;;;;;11.93;100.00;100537.34;4997305;28;20401;-70
2021/12/01 11:32:14;;;;;;;7.30;3.10;;;;;;;12.02;100.00;100535.31;4996696;28;20105;-69
2021/12/01 11:35:00;;;;;;;4.50;3.15;;;;;;;12.43;100.00;100526.34;4996329;28;20050;-70
2021/12/01 11:37:54;;;;;;;6.32;3.58;;;;;;;11.82;100.00;100532.34;4994363;28;20032;-70
2021/12/01 11:40:41;;;;;;;17.17;3.70;;;;;;;11.90;100.00;100530.38;4997471;28;20463;-69
2021/12/01 11:43:30;;;;;;;9.75;3.53;;;;;;;11.97;100.00;100521.44;4995978;28;20022;-70
2021/12/01 11:46:17;;;;;;;15.90;7.32;;;;;;;11.76;100.00;100529.88;4995560;28;20027;-70
2021/12/01 11:49:12;;;;;;;11.95;2.70;;;;;;;11.97;100.00;100521.44;4996550;28;20026;-69
2021/12/01 11:52:04;;;;;;;6.30;2.90;;;;;;;11.97;100.00;100524.09;4997702;28;20113;-69
2021/12/01 11:54:49;;;;;;;8.40;2.80;;;;;;;12.12;100.00;100517.56;4995259;28;20049;-70
2021/12/01 11:57:41;;;;;;;3.88;2.47;;;;;;;12.25;100.00;100521.56;4996576;28;20467;-72
2021/12/01 12:00:45;;;;;;;5.05;2.72;;;;;;;11.97;100.00;100518.81;4996500;28;20037;-70
2021/12/01 12:03:31;;;;;;;5.28;2.63;;;;;;;11.65;100.00;100521.41;4996565;28;20037;-70
2021/12/01 12:06:21;;;;;;;3.80;2.40;;;;;;;11.90;100.00;100522.50;4995852;28;20093;-70
2021/12/01 12:09:09;;;;;;;3.55;2.60;;;;;;;11.71;100.00;100530.91;4995546;28;20030;-70
2021/12/01 12:11:56;;;;;;;3.25;2.08;;;;;;;11.86;100.00;100530.53;4995724;28;20030;-69
2021/12/01 12:14:45;;;;;;;5.22;2.25;;;;;;;11.96;100.00;100527.63;4995959;28;20026;-70
2021/12/01 12:17:35;;;;;;;5.32;2.42;;;;;;;11.79;100.00;100529.81;4995740;28;20113;-70
2021/12/01 12:20:25;;;;;;;30.20;20.63;;;;;;;12.23;100.00;100534.78;4996159;28;20371;-69
2021/12/01 12:23:14;;;;;;;4.43;2.40;;;;;;;12.04;100.00;100537.91;4995119;28;20022;-70
2021/12/01 12:26:00;;;;;;;3.40;2.33;;;;;;;12.02;100.00;100530.06;4996904;28;20344;-70
2021/12/01 12:28:46;;;;;;;3.88;2.60;;;;;;;11.76;100.00;100540.38;4994245;28;20399;-70
2021/12/01 12:31:32;;;;;;;3.95;2.30;;;;;;;11.90;100.00;100547.91;4995647;28;20034;-70
2021/12/01 12:34:24;;;;;;;4.20;2.20;;;;;;;11.82;100.00;100545.47;4996203;28;20439;-70
2021/12/01 12:37:21;;;;;;;3.42;2.03;;;;;;;11.56;100.00;100534.72;4996054;28;20061;-69
2021/12/01 12:40:30;;;;;;;9.38;2.60;;;;;;;11.27;100.00;100531.94;4995590;28;20158;-69
2021/12/01 12:43:24;;;;;;;7.97;2.42;;;;;;;11.65;100.00;100538.94;4995038;28;20018;-70
2021/12/01 12:46:19;;;;;;;4.40;2.58;;;;;;;11.63;100.00;100540.72;4995880;28;20381;-70
2021/12/01 12:49:05;;;;;;;4.93;2.90;;;;;;;11.35;100.00;100548.38;4994136;28;20027;-70
2021/12/01 12:51:50;;;;;;;3.63;2.65;;;;;;;11.28;100.00;100545.91;4994846;28;20029;-71
2021/12/01 12:54:37;;;;;;;4.03;2.83;;;;;;;11.25;100.00;100543.38;4995143;28;20034;-70
2021/12/01 12:57:26;;;;;;;3.50;2.50;;;;;;;11.24;100.00;100539.88;4995147;28;20033;-69
2021/12/01 13:00:47;;;;;;;3.65;2.85;;;;;;;11.39;100.00;100546.53;4995898;28;20045;-69
2021/12/01 13:03:34;;;;;;;9.95;3.70;;;;;;;11.49;100.00;100541.00;4995578;28;20026;-70
2021/12/01 13:06:28;;;;;;;3.88;2.75;;;;;;;11.24;100.00;100542.50;4994459;28;20033;-70